Fayette, Maine
Current Conditions -  °F | °C
As of 8:53 AM on Thursday 29 Jan 2015 (Local Time) from KAUG Reporting Station
Clear Clear  
Wind Chill: -4°   Ceiling: Unl
Heat Index:   Visibility: 10mi
Dew Point: -3°   Wind: 6mph
Humidity: 67%   Direction: 10°N
Pressure: 30.28"   Gusts: NA
Location:  44.4361°N, 70.0741°W
Report Text: KAUG 291353Z AUTO 01005KT 10SM CLR M14/M19 A3028 RMK AO2 SLP263 T11441194
Loading
Personal Weather Stations






























Interactive Weather Map New forecast layout! Learn more

10-Day Weather Forecast

Advertisements
Track Severe Weather on mobile